Flight Track Log - Related Links

Times and Time Zones

All times are in EDT time to prevent confusion due to time zone crossing. See the N906AC flight status page for this flight to view local times or setup timezone preferences in your user account.

Time Position Orientation Groundspeed Altitude Reporting Facility
EDT Latitude Longitude Course Direction KTS MPH feet Rate Location/Type
Thu 11:23:59 PM 39.8667 -75.2667 275° West 145 167 1,100  Level Philadelphia TRACON
Thu 11:25:00 PM 39.8822 -75.3634 293° West  Level FlightAware Approximate
Thu 11:27:32 PM 39.8850 -75.5339 270° West 311 358 11,500  Level Cleveland Center
Thu 11:28:33 PM 39.8925 -75.6583 275° West 346 398 12,300 1,525 Climbing Cleveland Center
Thu 11:29:34 PM 39.8939 -75.7906 271° West 359 413 14,600 2,557 Climbing Cleveland Center
Thu 11:30:35 PM 39.8997 -75.9447 273° West 357 411 17,500 2,477 Climbing Cleveland Center
Thu 11:31:23 PM 39.9017 -76.0475 271° West 356 410 19,100 2,278 Climbing New York Center
Thu 11:32:00 PM 39.8834 -76.2846 270° West  Level FlightAware Approximate
Thu 11:32:23 PM 39.9044 -76.1722 272° West 356 410 21,600  Level New York Center
Thu 11:33:23 PM 39.9008 -76.2939 268° West 345 397 24,200 2,400 Climbing New York Center
Thu 11:34:23 PM 39.9031 -76.4211 271° West 350 403 26,400 2,200 Climbing New York Center
Thu 11:35:23 PM 39.9014 -76.5428 269° West 350 403 28,600 2,050 Climbing New York Center
Thu 11:36:23 PM 39.9014 -76.6675 270° West 350 403 30,500 1,800 Climbing New York Center
Thu 11:37:23 PM 39.9011 -76.7972 270° West 350 403 32,200 1,650 Climbing New York Center
Thu 11:38:23 PM 39.9028 -76.9275 271° West 350 403 33,800 1,550 Climbing New York Center
Thu 11:39:23 PM 39.9000 -77.0569 268° West 350 403 35,300 1,300 Climbing New York Center
Thu 11:40:23 PM 39.9014 -77.1897 271° West 355 409 36,400 1,064 Climbing New York Center
Thu 11:42:46 PM 39.8989 -77.4908 269° West 378 435 38,900 971 Climbing Cleveland Center
Thu 11:43:47 PM 39.8972 -77.6603 269° West 388 447 39,700 541 Climbing Cleveland Center
Thu 11:44:48 PM 39.8961 -77.8042 269° West 395 455 40,000 149 Climbing Cleveland Center
Thu 11:45:48 PM 39.8942 -77.9531 269° West 408 470 40,000  Level Cleveland Center
Thu 11:46:49 PM 39.8928 -78.0981 269° West 403 464 40,000  Level Cleveland Center
Thu 11:47:50 PM 39.8908 -78.2403 269° West 396 456 40,000  Level Cleveland Center
Thu 11:48:51 PM 39.8892 -78.3711 269° West 397 457 40,000  Level Cleveland Center
Thu 11:49:52 PM 39.8875 -78.5150 269° West 399 459 40,000  Level Cleveland Center
Thu 11:50:53 PM 39.8853 -78.6889 269° West 401 461 40,000  Level Cleveland Center
Thu 11:51:53 PM 39.8833 -78.8322 269° West 400 460 40,000  Level Cleveland Center
Thu 11:52:54 PM 39.8806 -78.9697 269° West 405 466 40,000  Level Cleveland Center
Thu 11:53:55 PM 39.8775 -79.1139 268° West 401 461 40,000  Level Cleveland Center
Thu 11:54:56 PM 39.8753 -79.2578 269° West 397 457 40,000  Level Cleveland Center
Thu 11:55:56 PM 39.8725 -79.4011 269° West 397 457 40,000  Level Cleveland Center
Thu 11:56:57 PM 39.8703 -79.5497 269° West 407 468 40,000  Level Cleveland Center
Thu 11:57:58 PM 39.8658 -79.6947 268° West 405 466 40,000  Level Cleveland Center
Thu 11:58:58 PM 39.8611 -79.8397 268° West 401 461 40,000  Level Cleveland Center
Thu 11:59:59 PM 39.8581 -79.9833 268° West 397 457 40,000  Level Cleveland Center
Fri 12:01:00 AM 39.8539 -80.1292 268° West 400 460 40,000  Level Cleveland Center
Fri 12:02:00 AM 39.8486 -80.2747 267° West 401 461 40,000  Level Cleveland Center
Fri 12:03:01 AM 39.8444 -80.4194 268° West 401 461 40,000  Level Cleveland Center
Fri 12:04:01 AM 39.8397 -80.5647 268° West 401 461 40,000  Level Cleveland Center
Fri 12:04:39 AM 39.8344 -80.6564 266° West 400 460 40,000  Level Indianapolis Center
Fri 12:05:40 AM 39.8297 -80.8011 268° West 402 463 40,000  Level Indianapolis Center
Fri 12:06:41 AM 39.8250 -80.9461 268° West 402 463 40,000  Level Indianapolis Center
Fri 12:07:41 AM 39.8189 -81.1192 267° West 402 463 40,000  Level Indianapolis Center
Fri 12:08:42 AM 39.8128 -81.2619 267° West 399 459 40,000  Level Indianapolis Center
Fri 12:09:43 AM 39.8078 -81.4042 267° West 395 455 40,000  Level Indianapolis Center
Fri 12:10:44 AM 39.8019 -81.5319 267° West 392 451 40,000  Level Indianapolis Center
Fri 12:11:45 AM 39.7967 -81.6719 267° West 391 450 40,000  Level Indianapolis Center
Fri 12:12:45 AM 39.7897 -81.8128 266° West 391 450 40,000  Level Indianapolis Center
Fri 12:13:46 AM 39.7839 -81.9533 267° West 390 449 40,000  Level Indianapolis Center
Fri 12:14:47 AM 39.7764 -82.0942 266° West 392 451 40,000  Level Indianapolis Center
Fri 12:15:48 AM 39.7714 -82.2336 267° West 388 447 40,000  Level Indianapolis Center
Fri 12:16:48 AM 39.7636 -82.4008 267° West 387 445 40,000  Level Indianapolis Center
Fri 12:17:49 AM 39.7556 -82.5389 266° West 385 443 40,000  Level Indianapolis Center
Fri 12:18:50 AM 39.7489 -82.6778 266° West 386 444 40,000  Level Indianapolis Center
Fri 12:19:51 AM 39.7417 -82.8175 266° West 388 447 40,000  Level Indianapolis Center
Fri 12:20:51 AM 39.7342 -82.9558 266° West 384 442 40,000  Level Indianapolis Center
Fri 12:21:52 AM 39.7261 -83.0953 266° West 386 444 40,000  Level Indianapolis Center
Fri 12:22:53 AM 39.7181 -83.2383 266° West 393 452 40,000  Level Indianapolis Center
Fri 12:23:53 AM 39.7086 -83.3833 265° West 396 456 40,000  Level Indianapolis Center
Fri 12:24:54 AM 39.7006 -83.5319 266° West 403 464 40,000  Level Indianapolis Center
Fri 12:25:55 AM 39.6914 -83.6806 265° West 407 468 40,000  Level Indianapolis Center
Fri 12:26:55 AM 39.6839 -83.8242 266° West 399 459 40,000  Level Indianapolis Center
Fri 12:27:56 AM 39.6753 -83.9658 266° West 395 455 40,000  Level Indianapolis Center
Fri 12:28:56 AM 39.6661 -84.1064 265° West 392 451 40,000  Level Indianapolis Center
Fri 12:29:57 AM 39.6586 -84.2461 266° West 390 449 40,000  Level Indianapolis Center
Fri 12:30:58 AM 39.6481 -84.3881 265° West 394 453 40,000  Level Indianapolis Center
Fri 12:31:58 AM 39.6392 -84.5286 265° West 394 453 40,000  Level Indianapolis Center
Fri 12:32:59 AM 39.6300 -84.6706 265° West 395 455 40,000  Level Indianapolis Center
Fri 12:34:00 AM 39.6186 -84.8103 264° West 392 451 40,000  Level Indianapolis Center
Fri 12:35:00 AM 39.6097 -84.9569 266° West 389 448 40,000  Level Indianapolis Center
Fri 12:36:01 AM 39.5989 -85.0939 264° West 385 443 40,000  Level Indianapolis Center
Fri 12:37:01 AM 39.5892 -85.2306 265° West 383 441 40,000  Level Indianapolis Center
Fri 12:38:02 AM 39.5783 -85.3681 264° West 384 442 40,000  Level Indianapolis Center
Fri 12:39:03 AM 39.5689 -85.5061 265° West 384 442 40,000  Level Indianapolis Center
Fri 12:40:03 AM 39.5583 -85.6433 264° West 385 443 40,000  Level Indianapolis Center
Fri 12:41:04 AM 39.5472 -85.7819 264° West 387 445 40,000  Level Indianapolis Center
Fri 12:42:04 AM 39.5356 -85.9208 264° West 388 447 40,000  Level Indianapolis Center
Fri 12:43:05 AM 39.5247 -86.0606 264° West 389 448 40,000  Level Indianapolis Center
Fri 12:44:05 AM 39.5128 -86.2006 264° West 388 447 40,000  Level Indianapolis Center
Fri 12:45:06 AM 39.5017 -86.3411 264° West 389 448 40,000  Level Indianapolis Center
Fri 12:46:06 AM 39.4908 -86.4803 264° West 386 444 40,000  Level Indianapolis Center
Fri 12:47:07 AM 39.4783 -86.6194 263° West 387 445 40,000  Level Indianapolis Center
Fri 12:48:07 AM 39.4672 -86.7586 264° West 388 447 40,000  Level Indianapolis Center
Fri 12:49:08 AM 39.4550 -86.8978 264° West 390 449 40,000  Level Indianapolis Center
Fri 12:50:08 AM 39.4425 -87.0369 263° West 391 450 40,000  Level Indianapolis Center
Fri 12:51:09 AM 39.4300 -87.1772 263° West 393 452 40,000  Level Indianapolis Center
Fri 12:52:09 AM 39.4169 -87.3183 263° West 396 456 40,000  Level Indianapolis Center
Fri 12:53:10 AM 39.4039 -87.4572 263° West 392 451 40,000  Level Indianapolis Center
Fri 12:54:10 AM 39.3914 -87.5956 263° West 390 449 40,000  Level Indianapolis Center
Fri 12:55:11 AM 39.3783 -87.7356 263° West 392 451 40,000  Level Indianapolis Center
Fri 12:56:11 AM 39.3628 -87.8931 263° West 390 449 40,000 -793 Level Indianapolis Center
Fri 12:57:12 AM 39.3492 -88.0269 263° West 380 437 38,400 -1,552 Descending Indianapolis Center
Fri 12:58:07 AM 39.3392 -88.1328 263° West 372 428 37,000 -1,684 Descending Kansas City Center
Fri 12:59:06 AM 39.3258 -88.2625 262° West 366 421 35,200 -1,800 Descending Kansas City Center
Fri 01:00:07 AM 39.3128 -88.3975 263° West 374 430 33,400 -1,835 Descending Kansas City Center
Fri 01:01:07 AM 39.2981 -88.5353 262° West 383 441 31,500 -1,884 Descending Kansas City Center
Fri 01:02:08 AM 39.2764 -88.6703 258° West 382 440 29,600 -1,884 Descending Kansas City Center
Fri 01:03:08 AM 39.2325 -88.7917 245° Southwest 377 434 27,700 -1,805 Descending Kansas City Center
Fri 01:04:11 AM 39.1956 -88.9122 248° West 370 426 25,900 -1,785 Descending Kansas City Center
Fri 01:05:09 AM 39.1603 -89.0322 249° West 363 418 24,100 -1,934 Descending Kansas City Center
Fri 01:06:12 AM 39.1192 -89.1714 249° West 354 407 22,000 -1,884 Descending Kansas City Center
Fri 01:07:10 AM 39.0825 -89.2889 248° West 354 407 20,300 -1,765 Descending Kansas City Center
Fri 01:08:11 AM 39.0475 -89.4075 249° West 355 409 18,500 -1,686 Descending Kansas City Center
Fri 01:09:11 AM 39.0086 -89.5167 245° Southwest 337 388 16,900 -1,600 Descending Kansas City Center
Fri 01:10:11 AM 38.9628 -89.6103 238° Southwest 312 359 15,300 -1,636 Descending Kansas City Center
Fri 01:11:12 AM 38.9225 -89.7042 241° Southwest 303 349 13,600 -1,543 Descending Kansas City Center
Fri 01:12:31 AM 38.8714 -89.8117 239° Southwest 292 336 11,700 -1,437 Descending Kansas City Center
Fri 01:13:34 AM 38.8303 -89.8944 237° Southwest 280 322 10,200 -1,550 Descending Kansas City Center
Fri 01:14:31 AM 38.7922 -89.9697 237° Southwest 262 302 8,600 -1,600 Descending Kansas City Center
Fri 01:15:34 AM 38.7594 -90.0375 238° Southwest 238 274 7,000 -1,268 Descending Kansas City Center
Fri 01:16:34 AM 38.7436 -90.1142 255° West 230 265 6,000 -504 Descending Kansas City Center
Fri 01:17:33 AM 38.7356 -90.1867 262° West 218 251 6,000  Level Kansas City Center
Fri 01:18:33 AM 38.7228 -90.2553 257° West 207 238 6,000 -443 Level Kansas City Center
Fri 01:19:35 AM 38.7119 -90.3319 260° West 211 243 5,100 -871 Descending Kansas City Center
Fri 01:22:00 AM 38.6534 -90.6327 256° West  Level FlightAware Approximate
Fri 01:29:00 AM 38.6500 -90.6500 250° West  Level FlightAware Approximate
Fri 01:30:00 AM 38.6621 -90.6521 250° West  Level Estimated
Fri 01:31:00 AM 38.6621 -90.6521 250° West  Level Estimated
Fri 01:32:00 AM 38.6621 -90.6521 250° West  Level Estimated
Fri 01:33:00 AM 38.6621 -90.6521 250° West  Level Estimated

Login

Don't have an account? Register now (free) for customized features, flight alerts, and more!